Terminal Aerodrome Forecast
Issued by NWS

Home | Current Version | Previous Version | Graphics & Text | Print | Product List | Glossary On
Versions: 1 2 3 4 5 6 7 8 9 10 11 12 13 14 15 16 17 18 19 20 21
000
FTUS43 KGRB 191700
TAFCWA
TAF
KCWA 191732Z 1918/2018 21011G19KT P6SM BKN100
      TEMPO 1918/1919 -SHRA
     FM200100 22005KT P6SM SCT040 BKN100
     FM200700 29006KT P6SM SCT045 BKN090
     FM201000 31007KT P6SM OVC040
     FM201500 32010KT P6SM BKN030 OVC045=

USA.gov is the U.S. government's official web portal to all federal, state and local government web resources and services.